sensor_id;sensor_type;location;lat;lon;timestamp;pressure;altitude;pressure_sealevel;temperature;humidity
65054;BME280;51639;47.828;35.038;2023-02-11T00:14:44;101684.91;;;-2.66;100.00
65054;BME280;51639;47.828;35.038;2023-02-11T00:29:46;101668.28;;;-2.90;100.00
65054;BME280;51639;47.828;35.038;2023-02-11T00:44:48;101662.03;;;-2.99;100.00
65054;BME280;51639;47.828;35.038;2023-02-11T00:59:50;101657.22;;;-2.97;100.00
65054;BME280;51639;47.828;35.038;2023-02-11T01:14:52;101633.38;;;-3.02;100.00
65054;BME280;51639;47.828;35.038;2023-02-11T01:29:54;101646.31;;;-3.15;100.00
65054;BME280;51639;47.828;35.038;2023-02-11T01:44:56;101634.47;;;-3.22;100.00
65054;BME280;51639;47.828;35.038;2023-02-11T02:00:20;101641.38;;;-3.21;100.00
65054;BME280;51639;47.828;35.038;2023-02-11T02:15:28;101640.34;;;-3.25;100.00
65054;BME280;51639;47.828;35.038;2023-02-11T02:45:44;101630.13;;;-3.32;100.00
65054;BME280;51639;47.828;35.038;2023-02-11T03:01:49;101625.78;;;-3.28;100.00
65054;BME280;51639;47.828;35.038;2023-02-11T03:16:31;101607.66;;;-3.39;100.00
65054;BME280;51639;47.828;35.038;2023-02-11T03:47:03;101623.34;;;-3.43;100.00
65054;BME280;51639;47.828;35.038;2023-02-11T04:02:07;101631.75;;;-3.36;100.00
65054;BME280;51639;47.828;35.038;2023-02-11T04:17:10;101612.44;;;-3.23;100.00
65054;BME280;51639;47.828;35.038;2023-02-11T04:32:14;101601.38;;;-3.30;100.00
65054;BME280;51639;47.828;35.038;2023-02-11T04:47:17;101591.50;;;-3.43;100.00
65054;BME280;51639;47.828;35.038;2023-02-11T05:02:19;101607.44;;;-3.43;100.00
65054;BME280;51639;47.828;35.038;2023-02-11T05:17:21;101606.47;;;-3.52;100.00
65054;BME280;51639;47.828;35.038;2023-02-11T05:32:23;101603.84;;;-3.33;100.00
65054;BME280;51639;47.828;35.038;2023-02-11T05:47:25;101605.09;;;-2.06;100.00
65054;BME280;51639;47.828;35.038;2023-02-11T06:02:27;101593.16;;;-0.78;100.00
65054;BME280;51639;47.828;35.038;2023-02-11T06:17:29;101588.81;;;0.57;100.00
65054;BME280;51639;47.828;35.038;2023-02-11T06:32:34;101585.06;;;1.86;93.53
65054;BME280;51639;47.828;35.038;2023-02-11T06:47:45;101591.78;;;3.29;77.80
65054;BME280;51639;47.828;35.038;2023-02-11T07:02:47;101587.34;;;3.82;72.48
65054;BME280;51639;47.828;35.038;2023-02-11T07:17:49;101553.38;;;5.09;65.06
65054;BME280;51639;47.828;35.038;2023-02-11T07:32:51;101536.28;;;6.00;60.99
65054;BME280;51639;47.828;35.038;2023-02-11T07:47:53;101530.47;;;6.94;58.62
65054;BME280;51639;47.828;35.038;2023-02-11T08:02:58;101517.19;;;7.54;57.80
65054;BME280;51639;47.828;35.038;2023-02-11T08:18:00;101511.44;;;8.79;53.68
65054;BME280;51639;47.828;35.038;2023-02-11T08:33:02;101508.22;;;9.54;50.74
65054;BME280;51639;47.828;35.038;2023-02-11T08:48:04;101487.66;;;9.50;46.15
65054;BME280;51639;47.828;35.038;2023-02-11T09:03:06;101479.97;;;9.59;46.15
65054;BME280;51639;47.828;35.038;2023-02-11T09:18:08;101460.41;;;9.90;45.92
65054;BME280;51639;47.828;35.038;2023-02-11T09:33:10;101448.00;;;9.97;46.63
65054;BME280;51639;47.828;35.038;2023-02-11T09:48:22;101423.81;;;10.85;45.37
65054;BME280;51639;47.828;35.038;2023-02-11T10:03:37;101407.13;;;11.01;42.59
65054;BME280;51639;47.828;35.038;2023-02-11T10:18:52;101401.22;;;11.35;42.33
65054;BME280;51639;47.828;35.038;2023-02-11T10:34:09;101400.06;;;11.36;42.18
65054;BME280;51639;47.828;35.038;2023-02-11T10:49:32;101378.69;;;10.17;45.06
65054;BME280;51639;47.828;35.038;2023-02-11T11:04:39;101335.19;;;11.45;43.05
65054;BME280;51639;47.828;35.038;2023-02-11T11:19:43;101313.19;;;10.89;43.98
65054;BME280;51639;47.828;35.038;2023-02-11T11:34:53;101294.53;;;11.09;43.57
65054;BME280;51639;47.828;35.038;2023-02-11T12:05:26;101268.22;;;10.71;46.21
65054;BME280;51639;47.828;35.038;2023-02-11T12:35:51;101251.31;;;8.50;50.36
65054;BME280;51639;47.828;35.038;2023-02-11T13:06:16;101243.69;;;6.52;63.85
65054;BME280;51639;47.828;35.038;2023-02-11T13:36:30;101206.34;;;5.81;77.61
65054;BME280;51639;47.828;35.038;2023-02-11T13:51:39;101194.34;;;5.56;80.96
65054;BME280;51639;47.828;35.038;2023-02-11T14:22:46;101151.69;;;5.16;89.25
65054;BME280;51639;47.828;35.038;2023-02-11T14:38:08;101142.81;;;4.77;90.67
65054;BME280;51639;47.828;35.038;2023-02-11T14:53:16;101133.31;;;4.44;99.72
65054;BME280;51639;47.828;35.038;2023-02-11T15:08:19;101122.56;;;4.29;100.00
65054;BME280;51639;47.828;35.038;2023-02-11T15:23:24;101113.44;;;4.14;100.00
65054;BME280;51639;47.828;35.038;2023-02-11T15:38:27;101109.56;;;3.96;100.00
65054;BME280;51639;47.828;35.038;2023-02-11T15:53:35;101101.44;;;3.76;100.00
65054;BME280;51639;47.828;35.038;2023-02-11T16:08:41;101097.97;;;3.60;100.00
65054;BME280;51639;47.828;35.038;2023-02-11T16:23:52;101089.75;;;3.53;100.00
65054;BME280;51639;47.828;35.038;2023-02-11T16:38:55;101083.59;;;3.53;100.00
65054;BME280;51639;47.828;35.038;2023-02-11T16:53:57;101057.00;;;3.48;100.00
65054;BME280;51639;47.828;35.038;2023-02-11T17:08:59;101030.16;;;3.32;100.00
65054;BME280;51639;47.828;35.038;2023-02-11T17:24:01;101011.03;;;3.18;100.00
65054;BME280;51639;47.828;35.038;2023-02-11T17:39:03;100997.38;;;3.07;100.00
65054;BME280;51639;47.828;35.038;2023-02-11T17:54:14;100968.78;;;3.46;100.00
65054;BME280;51639;47.828;35.038;2023-02-11T18:09:17;100980.22;;;3.12;100.00
65054;BME280;51639;47.828;35.038;2023-02-11T18:24:19;100956.41;;;3.10;100.00
65054;BME280;51639;47.828;35.038;2023-02-11T18:39:21;100933.16;;;2.83;100.00
65054;BME280;51639;47.828;35.038;2023-02-11T18:54:25;100917.38;;;2.50;100.00
65054;BME280;51639;47.828;35.038;2023-02-11T19:09:27;100887.28;;;2.72;100.00
65054;BME280;51639;47.828;35.038;2023-02-11T19:24:29;100866.16;;;2.23;100.00
65054;BME280;51639;47.828;35.038;2023-02-11T19:39:31;100852.31;;;2.21;100.00
65054;BME280;51639;47.828;35.038;2023-02-11T19:54:33;100831.16;;;2.32;100.00
65054;BME280;51639;47.828;35.038;2023-02-11T20:09:35;100825.03;;;2.31;100.00
65054;BME280;51639;47.828;35.038;2023-02-11T20:24:37;100801.84;;;2.23;100.00
65054;BME280;51639;47.828;35.038;2023-02-11T20:39:39;100779.47;;;2.31;100.00
65054;BME280;51639;47.828;35.038;2023-02-11T20:54:43;100755.88;;;2.21;100.00
65054;BME280;51639;47.828;35.038;2023-02-11T21:09:44;100760.38;;;2.17;100.00
65054;BME280;51639;47.828;35.038;2023-02-11T21:24:46;100749.84;;;2.09;100.00
65054;BME280;51639;47.828;35.038;2023-02-11T21:39:48;100728.22;;;2.17;100.00
65054;BME280;51639;47.828;35.038;2023-02-11T21:54:51;100728.75;;;2.07;100.00
65054;BME280;51639;47.828;35.038;2023-02-11T22:09:53;100704.31;;;2.09;100.00
65054;BME280;51639;47.828;35.038;2023-02-11T22:24:56;100674.56;;;2.14;100.00
65054;BME280;51639;47.828;35.038;2023-02-11T22:40:01;100672.59;;;2.11;100.00
65054;BME280;51639;47.828;35.038;2023-02-11T22:55:04;100670.25;;;2.09;100.00
65054;BME280;51639;47.828;35.038;2023-02-11T23:10:08;100638.13;;;2.09;100.00
65054;BME280;51639;47.828;35.038;2023-02-11T23:25:10;100619.13;;;1.98;100.00
65054;BME280;51639;47.828;35.038;2023-02-11T23:40:12;100589.50;;;2.07;100.00
65054;BME280;51639;47.828;35.038;2023-02-11T23:55:14;100556.25;;;1.92;100.00
